createdAt,value
2023-04-12T00:01:08.888Z,69.40
2023-04-12T00:03:36.490Z,68.60
2023-04-12T00:06:03.818Z,68.32
2023-04-12T00:08:33.826Z,67.87
2023-04-12T00:11:03.561Z,68.06
2023-04-12T00:13:31.286Z,69.03
2023-04-12T00:15:58.305Z,68.29
2023-04-12T00:18:26.220Z,68.94
2023-04-12T00:20:53.671Z,69.22
2023-04-12T00:23:21.249Z,69.59
2023-04-12T00:25:48.414Z,69.72
2023-04-12T00:28:16.300Z,70.15
2023-04-12T00:30:44.049Z,69.56
2023-04-12T00:33:11.119Z,70.52
2023-04-12T00:35:38.204Z,70.79
2023-04-12T00:38:10.333Z,70.30
2023-04-12T00:40:46.858Z,70.64
2023-04-12T00:43:18.847Z,70.75
2023-04-12T00:45:49.689Z,71.53
2023-04-12T00:48:19.413Z,71.28
2023-04-12T00:50:47.516Z,72.18
2023-04-12T00:53:15.113Z,71.55
2023-04-12T00:55:44.970Z,71.69
2023-04-12T00:58:13.621Z,72.75
2023-04-12T01:00:40.879Z,72.59
2023-04-12T01:03:11.920Z,73.69
2023-04-12T01:06:09.737Z,74.47
2023-04-12T01:08:58.188Z,74.71
2023-04-12T01:11:44.913Z,74.34
2023-04-12T01:14:40.011Z,73.27
2023-04-12T01:17:09.445Z,73.54
2023-04-12T01:20:18.633Z,72.55
2023-04-12T01:22:46.368Z,73.20
2023-04-12T01:26:02.626Z,71.67
2023-04-12T01:28:34.537Z,71.17
2023-04-12T01:31:04.318Z,71.87
2023-04-12T01:33:33.707Z,71.21
2023-04-12T01:36:04.561Z,68.93
2023-04-12T01:38:35.434Z,71.07
2023-04-12T01:41:02.545Z,71.02
2023-04-12T01:43:29.458Z,71.61
2023-04-12T01:45:56.489Z,72.21
2023-04-12T01:48:23.488Z,70.84
2023-04-12T01:51:07.268Z,70.70
2023-04-12T01:53:50.906Z,71.29
2023-04-12T01:56:19.764Z,72.03
2023-04-12T01:58:49.060Z,71.95
2023-04-12T02:01:19.153Z,72.07
2023-04-12T02:03:49.934Z,72.68
2023-04-12T02:06:22.648Z,71.75
2023-04-12T02:08:50.651Z,72.09
2023-04-12T02:11:17.612Z,72.82
2023-04-12T02:13:44.895Z,72.11
2023-04-12T02:16:14.135Z,70.73
2023-04-12T02:18:42.417Z,70.61
2023-04-12T02:21:13.457Z,70.17
2023-04-12T02:23:41.901Z,69.79
2023-04-12T02:26:08.938Z,70.70
2023-04-12T02:28:37.292Z,70.83
2023-04-12T02:31:06.946Z,70.51
2023-04-12T02:33:35.730Z,69.91
2023-04-12T02:36:11.233Z,70.85
2023-04-12T02:38:38.693Z,70.78
2023-04-12T02:41:07.726Z,70.01
2023-04-12T02:43:35.794Z,70.69
2023-04-12T02:46:08.742Z,70.11
2023-04-12T02:48:46.305Z,71.12
2023-04-12T02:51:13.544Z,70.43
2023-04-12T02:53:42.497Z,71.02
2023-04-12T02:56:19.151Z,70.72
2023-04-12T02:58:49.612Z,71.62
2023-04-12T03:01:26.706Z,71.61
2023-04-12T03:04:17.148Z,71.09
2023-04-12T03:06:54.141Z,70.95
2023-04-12T03:09:38.682Z,70.80
2023-04-12T03:12:06.654Z,71.11
2023-04-12T03:14:38.494Z,71.56
2023-04-12T03:17:07.631Z,72.71
2023-04-12T03:19:36.901Z,72.31
2023-04-12T03:22:05.137Z,71.80
2023-04-12T03:24:35.209Z,72.69
2023-04-12T03:27:04.566Z,71.53
2023-04-12T03:29:34.417Z,71.25
2023-04-12T03:32:02.224Z,71.75
2023-04-12T03:34:32.445Z,72.58
2023-04-12T03:37:04.899Z,72.99
2023-04-12T03:39:41.148Z,71.88
2023-04-12T03:42:21.509Z,72.05
2023-04-12T03:44:57.210Z,72.34
2023-04-12T03:47:24.296Z,71.73
2023-04-12T03:50:10.332Z,71.17
2023-04-12T03:52:40.137Z,70.08
2023-04-12T03:55:08.421Z,70.60
2023-04-12T03:57:36.635Z,69.97
2023-04-12T04:00:08.532Z,70.85
2023-04-12T04:02:54.318Z,71.20
2023-04-12T04:05:21.699Z,71.34
2023-04-12T04:07:48.974Z,72.25
2023-04-12T04:10:16.213Z,72.78
2023-04-12T04:12:45.035Z,71.90
2023-04-12T04:15:14.258Z,72.67
2023-04-12T04:17:42.849Z,73.38
2023-04-12T04:20:12.623Z,73.26
2023-04-12T04:22:44.798Z,72.51
2023-04-12T04:25:14.315Z,72.72
2023-04-12T04:27:47.050Z,72.77
2023-04-12T04:30:17.283Z,72.36
2023-04-12T04:32:46.232Z,71.93
2023-04-12T04:35:16.825Z,71.78
2023-04-12T04:38:10.303Z,71.27
2023-04-12T04:40:38.797Z,71.95
2023-04-12T04:43:09.734Z,71.89
2023-04-12T04:45:41.435Z,71.93
2023-04-12T04:48:08.562Z,72.49
2023-04-12T04:50:35.577Z,72.37
2023-04-12T04:53:03.850Z,71.97
2023-04-12T04:55:33.162Z,72.33
2023-04-12T04:58:00.183Z,72.94
2023-04-12T05:00:27.887Z,72.63
2023-04-12T05:02:57.318Z,73.06
2023-04-12T05:05:27.928Z,72.82
2023-04-12T05:08:04.569Z,72.76
2023-04-12T05:10:33.611Z,72.26
2023-04-12T05:13:02.695Z,74.07
2023-04-12T05:15:31.975Z,74.38
2023-04-12T05:17:59.904Z,74.34
2023-04-12T05:20:27.261Z,73.75
2023-04-12T05:22:54.202Z,74.25
2023-04-12T05:25:21.322Z,74.01
2023-04-12T05:27:55.497Z,74.20
2023-04-12T05:30:22.709Z,73.32
2023-04-12T05:32:51.029Z,73.84
2023-04-12T05:35:18.919Z,74.07
2023-04-12T05:37:47.704Z,72.94
2023-04-12T05:40:14.923Z,72.48
2023-04-12T05:42:42.626Z,71.08
2023-04-12T05:45:10.915Z,71.57
2023-04-12T05:47:38.459Z,72.15
2023-04-12T05:50:07.063Z,72.79
2023-04-12T05:52:34.477Z,72.18
2023-04-12T05:55:01.981Z,72.26
2023-04-12T05:57:30.474Z,72.04
2023-04-12T05:59:58.309Z,72.03
2023-04-12T06:02:26.264Z,70.28
2023-04-12T06:04:55.380Z,70.40
2023-04-12T06:07:22.995Z,70.64
2023-04-12T06:09:50.199Z,70.43
2023-04-12T06:12:17.955Z,72.22
2023-04-12T06:14:45.677Z,71.59
2023-04-12T06:17:12.905Z,69.90
2023-04-12T06:19:40.461Z,69.90
2023-04-12T06:22:07.510Z,69.73
2023-04-12T06:24:34.708Z,69.35
2023-04-12T06:27:01.821Z,69.20
2023-04-12T06:29:28.868Z,68.34
2023-04-12T06:31:56.078Z,69.30
2023-04-12T06:34:23.034Z,67.87
2023-04-12T06:36:51.161Z,67.84
2023-04-12T06:39:19.776Z,67.32
2023-04-12T06:41:50.551Z,68.76
2023-04-12T06:44:20.278Z,68.32
2023-04-12T06:46:47.381Z,68.59
2023-04-12T06:49:14.350Z,64.84
2023-04-12T06:51:41.372Z,58.81
2023-04-12T06:54:08.352Z,55.85
2023-04-12T06:56:37.995Z,55.61
2023-04-12T06:59:05.164Z,55.44
2023-04-12T07:01:34.654Z,52.70
2023-04-12T07:04:01.857Z,52.90
2023-04-12T07:06:28.925Z,52.16
2023-04-12T07:08:56.320Z,52.88
2023-04-12T07:11:23.989Z,52.42
2023-04-12T07:13:51.755Z,52.48
2023-04-12T07:16:19.025Z,52.52
2023-04-12T07:18:46.323Z,52.33
2023-04-12T07:21:14.495Z,51.52
2023-04-12T07:23:42.765Z,50.65
2023-04-12T07:26:09.731Z,50.72
2023-04-12T07:28:38.370Z,50.08
2023-04-12T07:31:08.550Z,49.00
2023-04-12T07:33:38.235Z,49.13
2023-04-12T07:36:07.811Z,48.91
2023-04-12T07:38:34.886Z,48.63
2023-04-12T07:41:01.921Z,47.95
2023-04-12T07:43:28.953Z,48.16
2023-04-12T07:45:56.440Z,46.53
2023-04-12T07:48:23.782Z,47.58
2023-04-12T07:50:51.459Z,46.42
2023-04-12T07:53:28.964Z,46.64
2023-04-12T07:55:58.942Z,47.33
2023-04-12T07:58:26.163Z,44.79
2023-04-12T08:00:54.063Z,45.58
2023-04-12T08:03:21.129Z,45.09
2023-04-12T08:05:53.440Z,44.52
2023-04-12T08:08:22.413Z,44.11
2023-04-12T08:10:50.685Z,44.40
2023-04-12T08:13:18.437Z,43.70
2023-04-12T08:15:47.261Z,44.17
2023-04-12T08:18:16.527Z,42.49
2023-04-12T08:20:44.336Z,43.18
2023-04-12T08:23:12.153Z,41.14
2023-04-12T08:25:39.693Z,39.91
2023-04-12T08:28:09.981Z,39.85
2023-04-12T08:30:37.266Z,37.42
2023-04-12T08:33:04.894Z,37.63
2023-04-12T08:35:32.726Z,37.29
2023-04-12T08:38:06.687Z,36.46
2023-04-12T08:40:34.041Z,36.10
2023-04-12T08:43:08.311Z,35.39
2023-04-12T08:45:36.581Z,35.02
2023-04-12T08:48:05.910Z,34.94
2023-04-12T08:50:33.544Z,34.49
2023-04-12T08:53:03.382Z,34.30
2023-04-12T08:55:30.556Z,34.03
2023-04-12T08:57:59.185Z,34.42
2023-04-12T09:00:27.135Z,33.43
2023-04-12T09:02:54.353Z,34.06
2023-04-12T09:05:30.132Z,33.60
2023-04-12T09:07:58.477Z,32.98
2023-04-12T09:10:37.169Z,32.98
2023-04-12T09:13:07.588Z,34.97
2023-04-12T09:15:35.400Z,35.41
2023-04-12T09:18:09.213Z,38.93
2023-04-12T09:20:38.050Z,38.92
2023-04-12T09:23:37.490Z,39.69
2023-04-12T09:26:05.482Z,40.49
2023-04-12T09:28:32.623Z,42.44
2023-04-12T09:31:00.908Z,41.63
2023-04-12T09:33:38.674Z,41.54
2023-04-12T09:36:13.495Z,40.58
2023-04-12T09:38:43.038Z,39.46
2023-04-12T09:41:26.471Z,38.95
2023-04-12T09:43:54.404Z,38.26
2023-04-12T09:46:22.910Z,39.65
2023-04-12T09:48:55.560Z,38.71
2023-04-12T09:51:34.118Z,36.77
2023-04-12T09:54:06.880Z,37.84
2023-04-12T09:56:36.603Z,37.11
2023-04-12T09:59:07.109Z,37.09
2023-04-12T10:01:40.493Z,37.60
2023-04-12T10:04:09.439Z,37.50
2023-04-12T10:06:37.366Z,38.22
2023-04-12T10:09:06.591Z,37.64
2023-04-12T10:11:34.767Z,37.04
2023-04-12T10:14:03.507Z,37.47
2023-04-12T10:16:32.041Z,36.21
2023-04-12T10:19:03.877Z,36.90
2023-04-12T10:21:33.829Z,37.73
2023-04-12T10:24:01.311Z,38.15
2023-04-12T10:26:28.348Z,37.19
2023-04-12T10:29:25.853Z,36.03
2023-04-12T10:32:23.454Z,37.79
2023-04-12T10:34:57.475Z,37.63
2023-04-12T10:38:02.502Z,36.01
2023-04-12T10:40:31.823Z,33.41
2023-04-12T10:43:23.312Z,34.30
2023-04-12T10:45:50.706Z,31.86
2023-04-12T10:48:36.657Z,31.58
2023-04-12T10:51:31.036Z,31.24
2023-04-12T10:54:07.929Z,30.09
2023-04-12T10:56:43.005Z,28.89
2023-04-12T10:59:16.572Z,28.19
2023-04-12T11:02:07.581Z,28.11
2023-04-12T11:04:36.196Z,28.97
2023-04-12T11:07:12.283Z,30.27
2023-04-12T11:09:42.825Z,33.37
2023-04-12T11:12:29.775Z,35.28
2023-04-12T11:15:01.565Z,35.67
2023-04-12T11:17:38.035Z,36.80
2023-04-12T11:20:06.582Z,36.45
2023-04-12T11:22:33.846Z,37.17
2023-04-12T11:25:03.179Z,37.15
2023-04-12T11:27:31.918Z,36.49
2023-04-12T11:30:00.920Z,36.65
2023-04-12T11:32:31.000Z,36.54
2023-04-12T11:34:58.962Z,36.36
2023-04-12T11:37:31.251Z,34.07
2023-04-12T11:39:59.184Z,32.40
2023-04-12T11:42:28.198Z,33.64
2023-04-12T11:45:01.615Z,31.05
2023-04-12T11:47:33.703Z,30.57
2023-04-12T11:50:00.821Z,30.68
2023-04-12T11:52:33.372Z,29.70
2023-04-12T11:55:06.894Z,29.15
2023-04-12T11:57:34.740Z,27.19
2023-04-12T12:00:06.730Z,28.83
2023-04-12T12:02:49.430Z,29.95
2023-04-12T12:05:26.427Z,30.47
2023-04-12T12:07:58.896Z,31.48
2023-04-12T12:10:43.605Z,30.65
2023-04-12T12:13:16.812Z,30.51
2023-04-12T12:15:45.741Z,32.26
2023-04-12T12:18:13.196Z,32.93
2023-04-12T12:20:50.329Z,31.15
2023-04-12T12:23:33.246Z,30.32
2023-04-12T12:26:19.148Z,29.48
2023-04-12T12:28:51.765Z,29.61
2023-04-12T12:31:28.256Z,30.79
2023-04-12T12:33:58.241Z,29.83
2023-04-12T12:36:34.389Z,30.01
2023-04-12T12:39:12.843Z,28.63
2023-04-12T12:41:41.742Z,28.51
2023-04-12T12:44:09.016Z,26.15
2023-04-12T12:49:06.167Z,23.26
2023-04-12T12:51:33.808Z,22.22
2023-04-12T12:54:01.367Z,24.22
2023-04-12T12:56:29.186Z,24.87
2023-04-12T12:58:57.078Z,24.25
2023-04-12T13:01:24.201Z,25.33
2023-04-12T13:03:51.430Z,25.58
2023-04-12T13:06:18.902Z,25.05
2023-04-12T13:08:46.920Z,24.64
2023-04-12T13:11:16.370Z,25.94
2023-04-12T13:13:44.087Z,26.35
2023-04-12T13:16:12.648Z,26.83
2023-04-12T13:18:41.391Z,26.20
2023-04-12T13:21:08.394Z,26.80
2023-04-12T13:23:37.416Z,27.27
2023-04-12T13:26:04.797Z,27.29
2023-04-12T13:28:32.108Z,25.43
2023-04-12T13:31:02.034Z,25.97
2023-04-12T13:33:29.034Z,26.41
2023-04-12T13:35:58.596Z,25.28
2023-04-12T13:38:25.583Z,26.05
2023-04-12T13:40:52.526Z,24.20
2023-04-12T13:43:19.665Z,24.36
2023-04-12T13:45:46.674Z,25.29
2023-04-12T13:48:13.669Z,24.85
2023-04-12T13:50:40.847Z,25.11
2023-04-12T13:53:08.856Z,25.58
2023-04-12T13:55:35.978Z,23.83
2023-04-12T13:58:02.922Z,23.75
2023-04-12T14:00:30.984Z,23.90
2023-04-12T14:02:58.050Z,23.88
2023-04-12T14:05:25.084Z,23.20
2023-04-12T14:07:52.590Z,22.27
2023-04-12T14:10:22.526Z,23.25
2023-04-12T14:12:49.536Z,22.70
2023-04-12T14:15:16.572Z,22.66
2023-04-12T14:17:43.657Z,21.93
2023-04-12T14:20:11.070Z,22.48
2023-04-12T14:22:38.227Z,22.10
2023-04-12T14:25:08.085Z,22.07
2023-04-12T14:27:36.514Z,22.35
2023-04-12T14:30:07.325Z,22.74
2023-04-12T14:32:34.941Z,23.16
2023-04-12T14:35:04.250Z,23.65
2023-04-12T14:37:33.181Z,24.03
2023-04-12T14:40:00.298Z,23.87
2023-04-12T14:42:28.842Z,24.09
2023-04-12T14:44:57.560Z,23.18
2023-04-12T14:47:25.116Z,24.10
2023-04-12T14:49:54.841Z,23.90
2023-04-12T14:52:21.848Z,24.29
2023-04-12T14:54:48.958Z,24.64
2023-04-12T14:57:16.338Z,24.44
2023-04-12T14:59:44.088Z,24.24
2023-04-12T15:02:11.177Z,23.74
2023-04-12T15:04:38.325Z,24.82
2023-04-12T15:07:05.370Z,24.68
2023-04-12T15:09:32.527Z,24.94
2023-04-12T15:12:02.435Z,24.38
2023-04-12T15:14:29.575Z,24.48
2023-04-12T15:16:57.152Z,23.96
2023-04-12T15:19:24.336Z,24.68
2023-04-12T15:21:52.639Z,24.48
2023-04-12T15:24:20.817Z,24.38
2023-04-12T15:26:50.876Z,25.02
2023-04-12T15:29:19.416Z,24.80
2023-04-12T15:31:47.035Z,24.48
2023-04-12T15:34:14.661Z,24.89
2023-04-12T15:36:43.281Z,24.95
2023-04-12T15:39:11.523Z,25.19
2023-04-12T15:41:40.712Z,24.74
2023-04-12T15:44:09.500Z,24.49
2023-04-12T15:46:36.494Z,25.13
2023-04-12T15:49:05.559Z,25.24
2023-04-12T15:51:33.282Z,26.09
2023-04-12T15:54:00.847Z,25.38
2023-04-12T15:56:29.733Z,26.10
2023-04-12T15:58:58.015Z,26.17
2023-04-12T16:01:25.659Z,28.22
2023-04-12T16:03:53.570Z,28.10
2023-04-12T16:06:21.183Z,28.24
2023-04-12T16:08:53.420Z,28.08
2023-04-12T16:11:25.809Z,28.21
2023-04-12T16:13:55.561Z,28.27
2023-04-12T16:16:23.591Z,29.26
2023-04-12T16:18:52.696Z,29.45
2023-04-12T16:21:23.227Z,30.70
2023-04-12T16:23:51.407Z,30.89
2023-04-12T16:26:21.965Z,31.65
2023-04-12T16:28:55.905Z,31.97
2023-04-12T16:31:25.462Z,31.92
2023-04-12T16:33:55.720Z,33.40
2023-04-12T16:36:27.459Z,33.94
2023-04-12T16:38:55.348Z,33.92
2023-04-12T16:41:23.908Z,33.96
2023-04-12T16:43:54.084Z,34.71
2023-04-12T16:46:22.993Z,34.76
2023-04-12T16:48:50.386Z,35.28
2023-04-12T16:51:20.044Z,35.35
2023-04-12T16:53:48.428Z,35.76
2023-04-12T16:56:17.296Z,35.60
2023-04-12T16:58:52.486Z,35.93
2023-04-12T17:01:21.465Z,36.82
2023-04-12T17:03:54.954Z,36.85
2023-04-12T17:06:24.463Z,37.10
2023-04-12T17:08:55.231Z,37.63
2023-04-12T17:11:24.241Z,37.95
2023-04-12T17:13:56.508Z,38.53
2023-04-12T17:16:24.847Z,38.60
2023-04-12T17:18:54.684Z,38.01
2023-04-12T17:21:23.011Z,38.62
2023-04-12T17:23:52.335Z,38.92
2023-04-12T17:26:27.450Z,38.51
2023-04-12T17:28:55.245Z,38.58
2023-04-12T17:31:42.881Z,38.69
2023-04-12T17:34:13.502Z,39.33
2023-04-12T17:36:44.955Z,39.69
2023-04-12T17:39:12.818Z,39.67
2023-04-12T17:41:43.701Z,40.24
2023-04-12T17:44:10.828Z,40.97
2023-04-12T17:46:38.089Z,40.51
2023-04-12T17:49:06.820Z,40.43
2023-04-12T17:51:33.891Z,41.12
2023-04-12T17:54:05.714Z,41.14
2023-04-12T17:56:34.013Z,41.74
2023-04-12T17:59:06.478Z,41.38
2023-04-12T18:01:35.467Z,41.99
2023-04-12T18:04:08.440Z,41.54
2023-04-12T18:06:36.120Z,41.97
2023-04-12T18:09:04.971Z,41.84
2023-04-12T18:11:38.775Z,41.89
2023-04-12T18:14:16.945Z,42.10
2023-04-12T18:16:44.822Z,42.54
2023-04-12T18:19:13.340Z,43.20
2023-04-12T18:21:47.142Z,42.00
2023-04-12T18:24:18.305Z,41.96
2023-04-12T18:26:46.459Z,41.97
2023-04-12T18:29:15.955Z,42.14
2023-04-12T18:31:43.726Z,42.61
2023-04-12T18:34:14.336Z,43.70
2023-04-12T18:36:42.408Z,44.16
2023-04-12T18:39:09.517Z,43.29
2023-04-12T18:41:36.595Z,44.72
2023-04-12T18:44:03.943Z,44.96
2023-04-12T18:46:30.973Z,44.75
2023-04-12T18:49:02.888Z,44.62
2023-04-12T18:51:53.367Z,44.75
2023-04-12T18:54:31.516Z,44.33
2023-04-12T18:57:03.551Z,44.64
2023-04-12T18:59:31.476Z,43.88
2023-04-12T19:01:58.566Z,44.52
2023-04-12T19:04:26.161Z,45.15
2023-04-12T19:06:53.393Z,45.16
2023-04-12T19:09:20.780Z,44.78
2023-04-12T19:11:49.195Z,45.41
2023-04-12T19:14:16.394Z,45.25
2023-04-12T19:16:43.711Z,45.37
2023-04-12T19:19:11.120Z,45.34
2023-04-12T19:21:38.282Z,45.00
2023-04-12T19:24:06.292Z,45.20
2023-04-12T19:26:36.800Z,45.39
2023-04-12T19:29:04.092Z,45.25
2023-04-12T19:31:31.370Z,44.87
2023-04-12T19:33:59.795Z,44.67
2023-04-12T19:36:27.643Z,45.07
2023-04-12T19:38:54.954Z,45.14
2023-04-12T19:41:23.858Z,44.76
2023-04-12T19:43:52.879Z,45.07
2023-04-12T19:46:22.499Z,45.19
2023-04-12T19:48:49.663Z,44.88
2023-04-12T19:51:17.465Z,44.80
2023-04-12T19:53:49.839Z,44.28
2023-04-12T19:56:17.758Z,44.45
2023-04-12T19:58:47.021Z,44.89
2023-04-12T20:01:16.150Z,44.97
2023-04-12T20:03:44.248Z,45.04
2023-04-12T20:06:11.579Z,44.46
2023-04-12T20:08:39.965Z,43.84
2023-04-12T20:11:08.259Z,43.42
2023-04-12T20:13:39.115Z,44.12
2023-04-12T20:16:07.323Z,43.08
2023-04-12T20:18:35.594Z,44.56
2023-04-12T20:21:04.871Z,43.94
2023-04-12T20:23:32.283Z,44.59
2023-04-12T20:26:00.319Z,44.52
2023-04-12T20:28:31.829Z,44.16
2023-04-12T20:30:58.980Z,45.99
2023-04-12T20:33:26.839Z,46.39
2023-04-12T20:35:54.231Z,46.68
2023-04-12T20:38:21.257Z,45.75
2023-04-12T20:40:48.773Z,45.94
2023-04-12T20:43:16.573Z,46.91
2023-04-12T20:45:43.509Z,47.55
2023-04-12T20:48:11.215Z,48.69
2023-04-12T20:50:41.014Z,48.55
2023-04-12T20:53:09.822Z,48.16
2023-04-12T20:55:36.785Z,49.02
2023-04-12T20:58:04.831Z,48.92
2023-04-12T21:00:33.786Z,48.58
2023-04-12T21:03:04.169Z,49.83
2023-04-12T21:05:35.758Z,49.71
2023-04-12T21:08:02.728Z,49.65
2023-04-12T21:10:29.678Z,49.21
2023-04-12T21:12:58.295Z,49.46
2023-04-12T21:15:25.396Z,49.64
2023-04-12T21:17:52.366Z,49.00
2023-04-12T21:20:19.842Z,49.61
2023-04-12T21:22:47.985Z,49.75
2023-04-12T21:25:16.993Z,49.57
2023-04-12T21:27:47.717Z,48.54
2023-04-12T21:30:15.675Z,48.94
2023-04-12T21:32:43.806Z,48.98
2023-04-12T21:35:11.713Z,48.71
2023-04-12T21:37:40.042Z,49.10
2023-04-12T21:40:12.705Z,49.87
2023-04-12T21:42:41.002Z,50.27
2023-04-12T21:45:13.868Z,50.10
2023-04-12T21:47:42.577Z,51.71
2023-04-12T21:50:10.816Z,50.96
2023-04-12T21:52:41.136Z,51.07
2023-04-12T21:55:08.523Z,51.82
2023-04-12T21:57:36.463Z,50.69
2023-04-12T22:00:10.212Z,49.85
2023-04-12T22:02:41.056Z,50.29
2023-04-12T22:05:08.782Z,50.63
2023-04-12T22:07:35.841Z,50.35
2023-04-12T22:10:03.021Z,51.58
2023-04-12T22:12:30.074Z,52.14
2023-04-12T22:14:57.631Z,51.75
2023-04-12T22:17:25.015Z,50.89
2023-04-12T22:19:56.511Z,51.17
2023-04-12T22:22:30.054Z,50.25
2023-04-12T22:24:57.078Z,51.60
2023-04-12T22:27:26.565Z,51.48
2023-04-12T22:29:53.788Z,50.51
2023-04-12T22:32:20.731Z,51.16
2023-04-12T22:34:54.845Z,51.78
2023-04-12T22:37:28.432Z,51.84
2023-04-12T22:39:55.452Z,51.86
2023-04-12T22:42:26.498Z,51.44
2023-04-12T22:44:54.285Z,52.06
2023-04-12T22:47:21.250Z,52.59
2023-04-12T22:49:50.944Z,50.84
2023-04-12T22:52:18.036Z,52.03
2023-04-12T22:54:47.995Z,51.57
2023-04-12T22:57:15.755Z,50.45
2023-04-12T22:59:42.658Z,50.40
2023-04-12T23:02:09.767Z,50.42
2023-04-12T23:04:36.774Z,50.61
2023-04-12T23:07:04.791Z,50.87
2023-04-12T23:09:33.341Z,50.07
2023-04-12T23:12:00.612Z,50.94
2023-04-12T23:14:29.843Z,50.37
2023-04-12T23:16:57.144Z,50.55
2023-04-12T23:19:24.382Z,51.07
2023-04-12T23:21:51.317Z,51.87
2023-04-12T23:24:18.541Z,51.35
2023-04-12T23:26:45.986Z,52.27
2023-04-12T23:29:13.863Z,51.72
2023-04-12T23:31:42.060Z,52.72
2023-04-12T23:34:09.149Z,52.84
2023-04-12T23:36:36.249Z,54.05
2023-04-12T23:39:08.554Z,53.84
2023-04-12T23:41:35.668Z,54.33
2023-04-12T23:44:02.664Z,54.53
2023-04-12T23:46:29.706Z,54.26
2023-04-12T23:48:56.845Z,54.08
2023-04-12T23:51:23.729Z,54.21
2023-04-12T23:53:50.702Z,53.52
2023-04-12T23:56:17.724Z,54.86
2023-04-12T23:58:44.698Z,53.50
